sensor_id;sensor_type;location;lat;lon;timestamp;P1;durP1;ratioP1;P2;durP2;ratioP2
9056;SDS011;4563;54.756;9.400;2022-08-25T00:00:58;3.20;;;0.90;;
9056;SDS011;4563;54.756;9.400;2022-08-25T00:03:26;2.50;;;0.80;;
9056;SDS011;4563;54.756;9.400;2022-08-25T00:05:53;3.80;;;0.87;;
9056;SDS011;4563;54.756;9.400;2022-08-25T00:08:20;5.97;;;1.00;;
9056;SDS011;4563;54.756;9.400;2022-08-25T00:10:47;4.93;;;1.30;;
9056;SDS011;4563;54.756;9.400;2022-08-25T00:13:14;2.03;;;1.10;;
9056;SDS011;4563;54.756;9.400;2022-08-25T00:15:41;2.07;;;0.80;;
9056;SDS011;4563;54.756;9.400;2022-08-25T00:18:07;3.80;;;0.70;;
9056;SDS011;4563;54.756;9.400;2022-08-25T00:20:36;3.23;;;1.27;;
9056;SDS011;4563;54.756;9.400;2022-08-25T00:23:03;1.53;;;0.87;;
9056;SDS011;4563;54.756;9.400;2022-08-25T00:25:29;1.97;;;0.77;;
9056;SDS011;4563;54.756;9.400;2022-08-25T00:27:56;3.67;;;1.10;;
9056;SDS011;4563;54.756;9.400;2022-08-25T00:30:23;2.50;;;0.90;;
9056;SDS011;4563;54.756;9.400;2022-08-25T00:32:50;2.50;;;0.80;;
9056;SDS011;4563;54.756;9.400;2022-08-25T00:35:17;5.73;;;1.13;;
9056;SDS011;4563;54.756;9.400;2022-08-25T00:37:45;3.40;;;0.80;;
9056;SDS011;4563;54.756;9.400;2022-08-25T00:40:12;4.37;;;1.03;;
9056;SDS011;4563;54.756;9.400;2022-08-25T00:42:39;2.97;;;1.00;;
9056;SDS011;4563;54.756;9.400;2022-08-25T00:45:06;2.33;;;0.80;;
9056;SDS011;4563;54.756;9.400;2022-08-25T00:47:34;3.13;;;0.93;;
9056;SDS011;4563;54.756;9.400;2022-08-25T00:50:03;2.03;;;0.90;;
9056;SDS011;4563;54.756;9.400;2022-08-25T00:52:33;2.03;;;0.80;;
9056;SDS011;4563;54.756;9.400;2022-08-25T00:55:06;2.40;;;1.07;;
9056;SDS011;4563;54.756;9.400;2022-08-25T00:57:37;4.07;;;1.00;;
9056;SDS011;4563;54.756;9.400;2022-08-25T01:00:09;1.37;;;0.80;;
9056;SDS011;4563;54.756;9.400;2022-08-25T01:02:40;2.07;;;0.80;;
9056;SDS011;4563;54.756;9.400;2022-08-25T01:05:06;2.20;;;1.00;;
9056;SDS011;4563;54.756;9.400;2022-08-25T01:07:34;2.53;;;1.07;;
9056;SDS011;4563;54.756;9.400;2022-08-25T01:10:02;3.23;;;1.00;;
9056;SDS011;4563;54.756;9.400;2022-08-25T01:12:33;4.27;;;1.67;;
9056;SDS011;4563;54.756;9.400;2022-08-25T01:15:02;5.43;;;1.13;;
9056;SDS011;4563;54.756;9.400;2022-08-25T01:17:32;5.40;;;0.83;;
9056;SDS011;4563;54.756;9.400;2022-08-25T01:20:00;1.27;;;0.90;;
9056;SDS011;4563;54.756;9.400;2022-08-25T01:22:28;4.10;;;1.40;;
9056;SDS011;4563;54.756;9.400;2022-08-25T01:24:57;3.23;;;1.07;;
9056;SDS011;4563;54.756;9.400;2022-08-25T01:27:27;5.07;;;1.07;;
9056;SDS011;4563;54.756;9.400;2022-08-25T01:29:54;4.63;;;1.10;;
9056;SDS011;4563;54.756;9.400;2022-08-25T01:32:22;4.83;;;1.33;;
9056;SDS011;4563;54.756;9.400;2022-08-25T01:34:49;5.07;;;1.20;;
9056;SDS011;4563;54.756;9.400;2022-08-25T01:37:16;1.87;;;1.30;;
9056;SDS011;4563;54.756;9.400;2022-08-25T01:39:46;3.63;;;1.00;;
9056;SDS011;4563;54.756;9.400;2022-08-25T01:42:27;2.00;;;0.93;;
9056;SDS011;4563;54.756;9.400;2022-08-25T01:45:02;4.67;;;1.23;;
9056;SDS011;4563;54.756;9.400;2022-08-25T01:47:30;2.80;;;1.00;;
9056;SDS011;4563;54.756;9.400;2022-08-25T01:49:57;3.27;;;1.10;;
9056;SDS011;4563;54.756;9.400;2022-08-25T01:52:27;2.30;;;1.00;;
9056;SDS011;4563;54.756;9.400;2022-08-25T01:54:58;3.00;;;1.00;;
9056;SDS011;4563;54.756;9.400;2022-08-25T01:57:27;6.10;;;0.87;;
9056;SDS011;4563;54.756;9.400;2022-08-25T01:59:55;4.53;;;1.30;;
9056;SDS011;4563;54.756;9.400;2022-08-25T02:02:22;3.17;;;1.10;;
9056;SDS011;4563;54.756;9.400;2022-08-25T02:04:49;1.30;;;0.90;;
9056;SDS011;4563;54.756;9.400;2022-08-25T02:07:16;2.33;;;1.10;;
9056;SDS011;4563;54.756;9.400;2022-08-25T02:09:43;4.73;;;1.10;;
9056;SDS011;4563;54.756;9.400;2022-08-25T02:12:11;4.47;;;1.13;;
9056;SDS011;4563;54.756;9.400;2022-08-25T02:14:39;2.20;;;0.97;;
9056;SDS011;4563;54.756;9.400;2022-08-25T02:17:06;3.03;;;1.10;;
9056;SDS011;4563;54.756;9.400;2022-08-25T02:19:33;3.17;;;1.00;;
9056;SDS011;4563;54.756;9.400;2022-08-25T02:22:00;3.67;;;1.27;;
9056;SDS011;4563;54.756;9.400;2022-08-25T02:24:27;3.67;;;1.10;;
9056;SDS011;4563;54.756;9.400;2022-08-25T02:26:54;1.07;;;0.93;;
9056;SDS011;4563;54.756;9.400;2022-08-25T02:29:23;1.73;;;1.10;;
9056;SDS011;4563;54.756;9.400;2022-08-25T02:31:50;5.60;;;1.17;;
9056;SDS011;4563;54.756;9.400;2022-08-25T02:34:17;4.07;;;0.90;;
9056;SDS011;4563;54.756;9.400;2022-08-25T02:36:44;5.17;;;0.90;;
9056;SDS011;4563;54.756;9.400;2022-08-25T02:39:11;3.93;;;1.10;;
9056;SDS011;4563;54.756;9.400;2022-08-25T02:41:38;5.43;;;2.10;;
9056;SDS011;4563;54.756;9.400;2022-08-25T02:44:05;2.73;;;1.13;;
9056;SDS011;4563;54.756;9.400;2022-08-25T02:46:34;2.60;;;1.07;;
9056;SDS011;4563;54.756;9.400;2022-08-25T02:49:02;2.30;;;1.43;;
9056;SDS011;4563;54.756;9.400;2022-08-25T02:51:29;3.93;;;1.33;;
9056;SDS011;4563;54.756;9.400;2022-08-25T02:53:58;2.77;;;1.10;;
9056;SDS011;4563;54.756;9.400;2022-08-25T02:56:26;6.50;;;1.77;;
9056;SDS011;4563;54.756;9.400;2022-08-25T02:58:54;4.70;;;1.90;;
9056;SDS011;4563;54.756;9.400;2022-08-25T03:01:21;3.53;;;1.53;;
9056;SDS011;4563;54.756;9.400;2022-08-25T03:03:50;10.50;;;1.70;;
9056;SDS011;4563;54.756;9.400;2022-08-25T03:06:17;7.80;;;2.20;;
9056;SDS011;4563;54.756;9.400;2022-08-25T03:08:47;8.37;;;2.17;;
9056;SDS011;4563;54.756;9.400;2022-08-25T03:11:14;8.90;;;2.30;;
9056;SDS011;4563;54.756;9.400;2022-08-25T03:13:41;12.87;;;2.03;;
9056;SDS011;4563;54.756;9.400;2022-08-25T03:16:08;13.83;;;2.80;;
9056;SDS011;4563;54.756;9.400;2022-08-25T03:18:35;12.27;;;2.43;;
9056;SDS011;4563;54.756;9.400;2022-08-25T03:21:04;9.00;;;2.17;;
9056;SDS011;4563;54.756;9.400;2022-08-25T03:23:31;12.60;;;2.63;;
9056;SDS011;4563;54.756;9.400;2022-08-25T03:25:59;24.87;;;3.60;;
9056;SDS011;4563;54.756;9.400;2022-08-25T03:28:58;17.73;;;2.53;;
9056;SDS011;4563;54.756;9.400;2022-08-25T03:31:29;20.10;;;2.83;;
9056;SDS011;4563;54.756;9.400;2022-08-25T03:33:56;14.40;;;2.80;;
9056;SDS011;4563;54.756;9.400;2022-08-25T03:36:25;11.27;;;2.80;;
9056;SDS011;4563;54.756;9.400;2022-08-25T03:38:53;18.17;;;2.83;;
9056;SDS011;4563;54.756;9.400;2022-08-25T03:41:21;11.47;;;2.33;;
9056;SDS011;4563;54.756;9.400;2022-08-25T03:43:50;9.33;;;2.37;;
9056;SDS011;4563;54.756;9.400;2022-08-25T03:46:17;6.53;;;2.53;;
9056;SDS011;4563;54.756;9.400;2022-08-25T03:48:46;14.93;;;2.70;;
9056;SDS011;4563;54.756;9.400;2022-08-25T03:51:17;7.57;;;2.20;;
9056;SDS011;4563;54.756;9.400;2022-08-25T03:53:47;16.53;;;2.63;;
9056;SDS011;4563;54.756;9.400;2022-08-25T03:56:14;16.30;;;2.97;;
9056;SDS011;4563;54.756;9.400;2022-08-25T03:58:41;14.23;;;2.97;;
9056;SDS011;4563;54.756;9.400;2022-08-25T04:01:08;14.80;;;3.60;;
9056;SDS011;4563;54.756;9.400;2022-08-25T04:03:36;8.27;;;2.57;;
9056;SDS011;4563;54.756;9.400;2022-08-25T04:06:03;16.03;;;3.20;;
9056;SDS011;4563;54.756;9.400;2022-08-25T04:08:31;12.17;;;3.50;;
9056;SDS011;4563;54.756;9.400;2022-08-25T04:11:00;8.33;;;3.13;;
9056;SDS011;4563;54.756;9.400;2022-08-25T04:13:31;7.37;;;2.50;;
9056;SDS011;4563;54.756;9.400;2022-08-25T04:15:58;7.30;;;2.60;;
9056;SDS011;4563;54.756;9.400;2022-08-25T04:18:25;5.83;;;2.50;;
9056;SDS011;4563;54.756;9.400;2022-08-25T04:20:55;3.03;;;2.50;;
9056;SDS011;4563;54.756;9.400;2022-08-25T04:23:27;4.13;;;2.70;;
9056;SDS011;4563;54.756;9.400;2022-08-25T04:25:54;7.40;;;3.30;;
9056;SDS011;4563;54.756;9.400;2022-08-25T04:28:22;8.60;;;2.70;;
9056;SDS011;4563;54.756;9.400;2022-08-25T04:30:49;5.37;;;2.30;;
9056;SDS011;4563;54.756;9.400;2022-08-25T04:33:16;6.03;;;2.90;;
9056;SDS011;4563;54.756;9.400;2022-08-25T04:35:45;5.23;;;2.47;;
9056;SDS011;4563;54.756;9.400;2022-08-25T04:38:13;4.23;;;2.30;;
9056;SDS011;4563;54.756;9.400;2022-08-25T04:40:40;4.67;;;2.57;;
9056;SDS011;4563;54.756;9.400;2022-08-25T04:43:07;8.77;;;2.80;;
9056;SDS011;4563;54.756;9.400;2022-08-25T04:45:38;6.10;;;2.33;;
9056;SDS011;4563;54.756;9.400;2022-08-25T04:48:05;4.70;;;3.27;;
9056;SDS011;4563;54.756;9.400;2022-08-25T04:50:32;5.97;;;2.97;;
9056;SDS011;4563;54.756;9.400;2022-08-25T04:53:03;7.23;;;2.40;;
9056;SDS011;4563;54.756;9.400;2022-08-25T04:55:29;7.33;;;2.87;;
9056;SDS011;4563;54.756;9.400;2022-08-25T04:57:56;5.67;;;3.37;;
9056;SDS011;4563;54.756;9.400;2022-08-25T05:00:23;5.60;;;3.00;;
9056;SDS011;4563;54.756;9.400;2022-08-25T05:02:51;4.07;;;2.40;;
9056;SDS011;4563;54.756;9.400;2022-08-25T05:05:19;3.63;;;2.47;;
9056;SDS011;4563;54.756;9.400;2022-08-25T05:07:46;5.67;;;2.13;;
9056;SDS011;4563;54.756;9.400;2022-08-25T05:10:13;7.20;;;2.47;;
9056;SDS011;4563;54.756;9.400;2022-08-25T05:12:40;10.07;;;2.77;;
9056;SDS011;4563;54.756;9.400;2022-08-25T05:15:07;3.60;;;1.90;;
9056;SDS011;4563;54.756;9.400;2022-08-25T05:17:48;6.57;;;2.30;;
9056;SDS011;4563;54.756;9.400;2022-08-25T05:20:16;4.50;;;2.57;;
9056;SDS011;4563;54.756;9.400;2022-08-25T05:22:44;8.87;;;2.80;;
9056;SDS011;4563;54.756;9.400;2022-08-25T05:25:12;3.83;;;2.27;;
9056;SDS011;4563;54.756;9.400;2022-08-25T05:27:40;4.23;;;2.50;;
9056;SDS011;4563;54.756;9.400;2022-08-25T05:30:08;4.40;;;2.20;;
9056;SDS011;4563;54.756;9.400;2022-08-25T05:32:36;4.77;;;2.40;;
9056;SDS011;4563;54.756;9.400;2022-08-25T05:35:04;4.30;;;2.30;;
9056;SDS011;4563;54.756;9.400;2022-08-25T05:37:33;7.97;;;2.73;;
9056;SDS011;4563;54.756;9.400;2022-08-25T05:40:02;7.32;;;3.38;;
9056;SDS011;4563;54.756;9.400;2022-08-25T05:42:29;9.93;;;3.23;;
9056;SDS011;4563;54.756;9.400;2022-08-25T05:44:56;5.93;;;3.03;;
9056;SDS011;4563;54.756;9.400;2022-08-25T05:47:23;7.33;;;3.57;;
9056;SDS011;4563;54.756;9.400;2022-08-25T05:49:50;4.30;;;2.83;;
9056;SDS011;4563;54.756;9.400;2022-08-25T05:52:17;4.70;;;2.90;;
9056;SDS011;4563;54.756;9.400;2022-08-25T05:54:45;3.03;;;2.57;;
9056;SDS011;4563;54.756;9.400;2022-08-25T05:57:12;6.87;;;2.47;;
9056;SDS011;4563;54.756;9.400;2022-08-25T05:59:39;5.43;;;2.40;;
9056;SDS011;4563;54.756;9.400;2022-08-25T06:02:06;4.03;;;2.50;;
9056;SDS011;4563;54.756;9.400;2022-08-25T06:04:50;4.03;;;2.13;;
9056;SDS011;4563;54.756;9.400;2022-08-25T06:07:17;6.47;;;2.57;;
9056;SDS011;4563;54.756;9.400;2022-08-25T06:09:45;3.03;;;2.57;;
9056;SDS011;4563;54.756;9.400;2022-08-25T06:12:14;6.03;;;2.80;;
9056;SDS011;4563;54.756;9.400;2022-08-25T06:14:41;6.70;;;2.53;;
9056;SDS011;4563;54.756;9.400;2022-08-25T06:17:08;5.10;;;2.50;;
9056;SDS011;4563;54.756;9.400;2022-08-25T06:19:35;2.37;;;2.00;;
9056;SDS011;4563;54.756;9.400;2022-08-25T06:22:02;4.87;;;2.47;;
9056;SDS011;4563;54.756;9.400;2022-08-25T06:24:29;5.37;;;2.57;;
9056;SDS011;4563;54.756;9.400;2022-08-25T06:26:58;4.63;;;2.30;;
9056;SDS011;4563;54.756;9.400;2022-08-25T06:29:26;4.27;;;2.20;;
9056;SDS011;4563;54.756;9.400;2022-08-25T06:31:53;5.87;;;1.97;;
9056;SDS011;4563;54.756;9.400;2022-08-25T06:34:20;3.17;;;1.87;;
9056;SDS011;4563;54.756;9.400;2022-08-25T06:36:47;4.63;;;1.83;;
9056;SDS011;4563;54.756;9.400;2022-08-25T06:39:14;3.40;;;1.97;;
9056;SDS011;4563;54.756;9.400;2022-08-25T06:41:41;7.23;;;2.10;;
9056;SDS011;4563;54.756;9.400;2022-08-25T06:44:09;3.57;;;2.10;;
9056;SDS011;4563;54.756;9.400;2022-08-25T06:46:37;4.43;;;1.97;;
9056;SDS011;4563;54.756;9.400;2022-08-25T06:49:04;4.67;;;1.73;;
9056;SDS011;4563;54.756;9.400;2022-08-25T06:51:32;2.27;;;1.90;;
9056;SDS011;4563;54.756;9.400;2022-08-25T06:54:00;4.00;;;1.80;;
9056;SDS011;4563;54.756;9.400;2022-08-25T06:56:28;5.67;;;2.00;;
9056;SDS011;4563;54.756;9.400;2022-08-25T06:58:55;2.67;;;1.50;;
9056;SDS011;4563;54.756;9.400;2022-08-25T07:01:23;3.23;;;1.80;;
9056;SDS011;4563;54.756;9.400;2022-08-25T07:03:52;4.63;;;1.77;;
9056;SDS011;4563;54.756;9.400;2022-08-25T07:06:21;8.27;;;1.60;;
9056;SDS011;4563;54.756;9.400;2022-08-25T07:08:49;2.93;;;1.23;;
9056;SDS011;4563;54.756;9.400;2022-08-25T07:11:16;7.27;;;1.70;;
9056;SDS011;4563;54.756;9.400;2022-08-25T07:13:45;8.10;;;1.63;;
9056;SDS011;4563;54.756;9.400;2022-08-25T07:16:12;4.57;;;1.40;;
9056;SDS011;4563;54.756;9.400;2022-08-25T07:18:41;3.00;;;1.47;;
9056;SDS011;4563;54.756;9.400;2022-08-25T07:21:08;1.87;;;1.37;;
9056;SDS011;4563;54.756;9.400;2022-08-25T07:23:36;1.70;;;1.27;;
9056;SDS011;4563;54.756;9.400;2022-08-25T07:26:07;5.23;;;1.40;;
9056;SDS011;4563;54.756;9.400;2022-08-25T07:28:35;3.73;;;1.30;;
9056;SDS011;4563;54.756;9.400;2022-08-25T07:31:02;5.00;;;1.50;;
9056;SDS011;4563;54.756;9.400;2022-08-25T07:33:29;6.50;;;1.83;;
9056;SDS011;4563;54.756;9.400;2022-08-25T07:35:57;3.17;;;1.30;;
9056;SDS011;4563;54.756;9.400;2022-08-25T07:38:23;3.43;;;1.50;;
9056;SDS011;4563;54.756;9.400;2022-08-25T07:40:50;5.27;;;1.50;;
9056;SDS011;4563;54.756;9.400;2022-08-25T07:43:19;3.30;;;1.63;;
9056;SDS011;4563;54.756;9.400;2022-08-25T07:45:47;3.97;;;1.20;;
9056;SDS011;4563;54.756;9.400;2022-08-25T07:48:14;8.50;;;1.50;;
9056;SDS011;4563;54.756;9.400;2022-08-25T07:50:43;6.10;;;1.37;;
9056;SDS011;4563;54.756;9.400;2022-08-25T07:53:12;4.63;;;1.20;;
9056;SDS011;4563;54.756;9.400;2022-08-25T07:55:40;5.50;;;1.47;;
9056;SDS011;4563;54.756;9.400;2022-08-25T07:58:08;3.90;;;1.30;;
9056;SDS011;4563;54.756;9.400;2022-08-25T08:00:35;5.87;;;1.43;;
9056;SDS011;4563;54.756;9.400;2022-08-25T08:03:06;6.03;;;1.43;;
9056;SDS011;4563;54.756;9.400;2022-08-25T08:05:34;5.67;;;1.47;;
9056;SDS011;4563;54.756;9.400;2022-08-25T08:08:02;2.93;;;1.17;;
9056;SDS011;4563;54.756;9.400;2022-08-25T08:10:30;6.33;;;1.30;;
9056;SDS011;4563;54.756;9.400;2022-08-25T08:12:57;6.00;;;1.37;;
9056;SDS011;4563;54.756;9.400;2022-08-25T08:15:24;3.27;;;1.10;;
9056;SDS011;4563;54.756;9.400;2022-08-25T08:17:51;6.47;;;1.33;;
9056;SDS011;4563;54.756;9.400;2022-08-25T08:20:18;5.17;;;1.60;;
9056;SDS011;4563;54.756;9.400;2022-08-25T08:22:45;4.43;;;1.47;;
9056;SDS011;4563;54.756;9.400;2022-08-25T08:25:12;2.17;;;1.07;;
9056;SDS011;4563;54.756;9.400;2022-08-25T08:27:40;3.60;;;1.37;;
9056;SDS011;4563;54.756;9.400;2022-08-25T08:30:10;7.47;;;1.20;;
9056;SDS011;4563;54.756;9.400;2022-08-25T08:32:38;5.17;;;1.20;;
9056;SDS011;4563;54.756;9.400;2022-08-25T08:35:05;5.57;;;1.20;;
9056;SDS011;4563;54.756;9.400;2022-08-25T08:37:32;3.97;;;1.00;;
9056;SDS011;4563;54.756;9.400;2022-08-25T08:40:02;5.47;;;1.17;;
9056;SDS011;4563;54.756;9.400;2022-08-25T08:42:36;3.03;;;1.20;;
9056;SDS011;4563;54.756;9.400;2022-08-25T08:45:22;4.53;;;1.03;;
9056;SDS011;4563;54.756;9.400;2022-08-25T08:48:07;4.90;;;1.13;;
9056;SDS011;4563;54.756;9.400;2022-08-25T08:50:45;4.53;;;0.87;;
9056;SDS011;4563;54.756;9.400;2022-08-25T08:53:21;6.20;;;1.40;;
9056;SDS011;4563;54.756;9.400;2022-08-25T08:55:52;4.43;;;1.17;;
9056;SDS011;4563;54.756;9.400;2022-08-25T08:58:24;1.67;;;0.80;;
9056;SDS011;4563;54.756;9.400;2022-08-25T09:00:56;6.90;;;1.33;;
9056;SDS011;4563;54.756;9.400;2022-08-25T09:03:26;4.07;;;1.37;;
9056;SDS011;4563;54.756;9.400;2022-08-25T09:06:00;5.27;;;1.10;;
9056;SDS011;4563;54.756;9.400;2022-08-25T09:08:30;3.47;;;1.10;;
9056;SDS011;4563;54.756;9.400;2022-08-25T09:11:00;3.10;;;1.03;;
9056;SDS011;4563;54.756;9.400;2022-08-25T09:13:38;3.93;;;1.20;;
9056;SDS011;4563;54.756;9.400;2022-08-25T09:16:18;3.53;;;1.00;;
9056;SDS011;4563;54.756;9.400;2022-08-25T09:19:10;3.13;;;0.90;;
9056;SDS011;4563;54.756;9.400;2022-08-25T09:21:49;3.83;;;1.23;;
9056;SDS011;4563;54.756;9.400;2022-08-25T09:24:25;7.33;;;1.00;;
9056;SDS011;4563;54.756;9.400;2022-08-25T09:27:04;5.20;;;1.00;;
9056;SDS011;4563;54.756;9.400;2022-08-25T09:29:44;6.20;;;1.10;;
9056;SDS011;4563;54.756;9.400;2022-08-25T09:32:22;2.03;;;0.87;;
9056;SDS011;4563;54.756;9.400;2022-08-25T09:34:51;2.63;;;0.90;;
9056;SDS011;4563;54.756;9.400;2022-08-25T09:37:19;4.83;;;0.77;;
9056;SDS011;4563;54.756;9.400;2022-08-25T09:39:47;6.30;;;1.25;;
9056;SDS011;4563;54.756;9.400;2022-08-25T09:42:15;1.85;;;0.90;;
9056;SDS011;4563;54.756;9.400;2022-08-25T09:44:45;5.60;;;1.00;;
9056;SDS011;4563;54.756;9.400;2022-08-25T09:47:18;5.00;;;0.85;;
9056;SDS011;4563;54.756;9.400;2022-08-25T09:49:48;3.92;;;0.93;;
9056;SDS011;4563;54.756;9.400;2022-08-25T09:52:29;2.10;;;0.90;;
9056;SDS011;4563;54.756;9.400;2022-08-25T09:54:59;4.78;;;0.65;;
9056;SDS011;4563;54.756;9.400;2022-08-25T09:57:50;4.03;;;1.02;;
9056;SDS011;4563;54.756;9.400;2022-08-25T10:00:22;8.15;;;1.15;;
9056;SDS011;4563;54.756;9.400;2022-08-25T10:03:02;2.50;;;1.00;;
9056;SDS011;4563;54.756;9.400;2022-08-25T10:05:31;3.40;;;1.05;;
9056;SDS011;4563;54.756;9.400;2022-08-25T10:08:01;2.75;;;0.85;;
9056;SDS011;4563;54.756;9.400;2022-08-25T10:10:37;6.68;;;0.90;;
9056;SDS011;4563;54.756;9.400;2022-08-25T10:13:12;2.60;;;0.85;;
9056;SDS011;4563;54.756;9.400;2022-08-25T10:15:41;3.95;;;0.90;;
9056;SDS011;4563;54.756;9.400;2022-08-25T10:18:15;4.00;;;1.10;;
9056;SDS011;4563;54.756;9.400;2022-08-25T10:21:00;4.22;;;0.90;;
9056;SDS011;4563;54.756;9.400;2022-08-25T10:23:29;2.33;;;0.93;;
9056;SDS011;4563;54.756;9.400;2022-08-25T10:25:59;6.25;;;1.00;;
9056;SDS011;4563;54.756;9.400;2022-08-25T10:28:31;2.33;;;1.05;;
9056;SDS011;4563;54.756;9.400;2022-08-25T10:31:07;5.28;;;1.05;;
9056;SDS011;4563;54.756;9.400;2022-08-25T10:33:40;2.90;;;0.82;;
9056;SDS011;4563;54.756;9.400;2022-08-25T10:36:18;6.88;;;1.00;;
9056;SDS011;4563;54.756;9.400;2022-08-25T10:38:49;4.68;;;1.00;;
9056;SDS011;4563;54.756;9.400;2022-08-25T10:41:37;4.32;;;0.80;;
9056;SDS011;4563;54.756;9.400;2022-08-25T10:44:17;4.22;;;1.00;;
9056;SDS011;4563;54.756;9.400;2022-08-25T10:47:15;3.13;;;0.70;;
9056;SDS011;4563;54.756;9.400;2022-08-25T10:50:00;5.28;;;1.00;;
9056;SDS011;4563;54.756;9.400;2022-08-25T10:52:36;4.35;;;0.90;;
9056;SDS011;4563;54.756;9.400;2022-08-25T10:55:12;1.85;;;0.90;;
9056;SDS011;4563;54.756;9.400;2022-08-25T10:57:46;4.45;;;0.85;;
9056;SDS011;4563;54.756;9.400;2022-08-25T11:00:21;1.52;;;0.80;;
9056;SDS011;4563;54.756;9.400;2022-08-25T11:03:10;1.98;;;0.80;;
9056;SDS011;4563;54.756;9.400;2022-08-25T11:05:46;1.88;;;0.73;;
9056;SDS011;4563;54.756;9.400;2022-08-25T11:08:20;1.73;;;0.85;;
9056;SDS011;4563;54.756;9.400;2022-08-25T11:10:59;5.82;;;1.00;;
9056;SDS011;4563;54.756;9.400;2022-08-25T11:13:38;3.50;;;0.80;;
9056;SDS011;4563;54.756;9.400;2022-08-25T11:16:09;2.90;;;0.77;;
9056;SDS011;4563;54.756;9.400;2022-08-25T11:18:43;3.28;;;1.00;;
9056;SDS011;4563;54.756;9.400;2022-08-25T11:21:16;3.00;;;1.00;;
9056;SDS011;4563;54.756;9.400;2022-08-25T11:23:49;2.45;;;0.80;;
9056;SDS011;4563;54.756;9.400;2022-08-25T11:26:23;2.95;;;0.60;;
9056;SDS011;4563;54.756;9.400;2022-08-25T11:28:59;4.28;;;0.90;;
9056;SDS011;4563;54.756;9.400;2022-08-25T11:31:31;1.50;;;0.90;;
9056;SDS011;4563;54.756;9.400;2022-08-25T11:34:07;9.43;;;1.00;;
9056;SDS011;4563;54.756;9.400;2022-08-25T11:36:38;0.90;;;0.63;;
9056;SDS011;4563;54.756;9.400;2022-08-25T11:39:11;5.35;;;0.70;;
9056;SDS011;4563;54.756;9.400;2022-08-25T11:41:49;0.90;;;0.60;;
9056;SDS011;4563;54.756;9.400;2022-08-25T11:44:39;1.10;;;0.80;;
9056;SDS011;4563;54.756;9.400;2022-08-25T11:47:19;2.92;;;0.70;;
9056;SDS011;4563;54.756;9.400;2022-08-25T11:49:58;2.88;;;1.00;;
9056;SDS011;4563;54.756;9.400;2022-08-25T11:55:19;3.90;;;0.95;;
9056;SDS011;4563;54.756;9.400;2022-08-25T11:57:51;3.80;;;0.70;;
9056;SDS011;4563;54.756;9.400;2022-08-25T12:00:39;1.98;;;0.77;;
9056;SDS011;4563;54.756;9.400;2022-08-25T12:06:17;2.67;;;0.85;;
9056;SDS011;4563;54.756;9.400;2022-08-25T12:08:50;5.75;;;0.77;;
9056;SDS011;4563;54.756;9.400;2022-08-25T12:14:33;3.65;;;0.73;;
9056;SDS011;4563;54.756;9.400;2022-08-25T12:17:16;2.95;;;0.82;;
9056;SDS011;4563;54.756;9.400;2022-08-25T12:19:46;5.57;;;1.13;;
9056;SDS011;4563;54.756;9.400;2022-08-25T12:25:17;3.13;;;0.70;;
9056;SDS011;4563;54.756;9.400;2022-08-25T12:28:29;2.30;;;0.80;;
9056;SDS011;4563;54.756;9.400;2022-08-25T12:31:38;1.75;;;0.80;;
9056;SDS011;4563;54.756;9.400;2022-08-25T12:34:30;1.05;;;0.75;;
9056;SDS011;4563;54.756;9.400;2022-08-25T12:37:10;1.73;;;0.70;;
9056;SDS011;4563;54.756;9.400;2022-08-25T12:39:43;1.58;;;0.65;;
9056;SDS011;4563;54.756;9.400;2022-08-25T12:42:21;4.60;;;0.82;;
9056;SDS011;4563;54.756;9.400;2022-08-25T12:51:07;3.85;;;1.10;;
9056;SDS011;4563;54.756;9.400;2022-08-25T12:53:40;7.72;;;0.90;;
9056;SDS011;4563;54.756;9.400;2022-08-25T12:56:17;3.80;;;0.75;;
9056;SDS011;4563;54.756;9.400;2022-08-25T12:58:53;1.75;;;0.70;;
9056;SDS011;4563;54.756;9.400;2022-08-25T13:01:31;2.72;;;0.90;;
9056;SDS011;4563;54.756;9.400;2022-08-25T13:07:11;2.10;;;0.70;;
9056;SDS011;4563;54.756;9.400;2022-08-25T13:10:11;3.70;;;0.60;;
9056;SDS011;4563;54.756;9.400;2022-08-25T13:12:50;3.08;;;0.80;;
9056;SDS011;4563;54.756;9.400;2022-08-25T13:15:27;1.73;;;0.85;;
9056;SDS011;4563;54.756;9.400;2022-08-25T13:18:13;1.50;;;0.70;;
9056;SDS011;4563;54.756;9.400;2022-08-25T13:20:43;0.82;;;0.75;;
9056;SDS011;4563;54.756;9.400;2022-08-25T13:23:10;2.55;;;0.82;;
9056;SDS011;4563;54.756;9.400;2022-08-25T13:25:39;4.80;;;0.77;;
9056;SDS011;4563;54.756;9.400;2022-08-25T13:28:19;3.33;;;0.90;;
9056;SDS011;4563;54.756;9.400;2022-08-25T13:30:55;1.65;;;0.88;;
9056;SDS011;4563;54.756;9.400;2022-08-25T13:33:23;3.65;;;0.88;;
9056;SDS011;4563;54.756;9.400;2022-08-25T13:35:51;2.95;;;1.17;;
9056;SDS011;4563;54.756;9.400;2022-08-25T13:38:40;2.22;;;0.70;;
9056;SDS011;4563;54.756;9.400;2022-08-25T13:41:07;3.35;;;0.82;;
9056;SDS011;4563;54.756;9.400;2022-08-25T13:43:37;5.15;;;1.17;;
9056;SDS011;4563;54.756;9.400;2022-08-25T13:46:04;2.88;;;0.90;;
9056;SDS011;4563;54.756;9.400;2022-08-25T13:48:32;2.00;;;1.02;;
9056;SDS011;4563;54.756;9.400;2022-08-25T13:53:48;3.20;;;0.70;;
9056;SDS011;4563;54.756;9.400;2022-08-25T13:56:24;3.83;;;1.20;;
9056;SDS011;4563;54.756;9.400;2022-08-25T13:58:56;1.20;;;0.90;;
9056;SDS011;4563;54.756;9.400;2022-08-25T14:01:25;2.20;;;0.85;;
9056;SDS011;4563;54.756;9.400;2022-08-25T14:03:55;3.28;;;0.90;;
9056;SDS011;4563;54.756;9.400;2022-08-25T14:06:42;1.98;;;0.70;;
9056;SDS011;4563;54.756;9.400;2022-08-25T14:09:13;1.92;;;0.90;;
9056;SDS011;4563;54.756;9.400;2022-08-25T14:11:42;3.95;;;0.80;;
9056;SDS011;4563;54.756;9.400;2022-08-25T14:14:28;1.00;;;0.80;;
9056;SDS011;4563;54.756;9.400;2022-08-25T14:16:58;2.60;;;0.80;;
9056;SDS011;4563;54.756;9.400;2022-08-25T14:19:28;3.83;;;0.80;;
9056;SDS011;4563;54.756;9.400;2022-08-25T14:21:56;4.28;;;0.90;;
9056;SDS011;4563;54.756;9.400;2022-08-25T14:24:26;2.15;;;0.70;;
9056;SDS011;4563;54.756;9.400;2022-08-25T14:26:58;4.10;;;0.85;;
9056;SDS011;4563;54.756;9.400;2022-08-25T14:29:27;1.90;;;0.93;;
9056;SDS011;4563;54.756;9.400;2022-08-25T14:31:56;4.88;;;0.93;;
9056;SDS011;4563;54.756;9.400;2022-08-25T14:34:25;4.38;;;0.77;;
9056;SDS011;4563;54.756;9.400;2022-08-25T14:36:54;0.90;;;0.70;;
9056;SDS011;4563;54.756;9.400;2022-08-25T14:39:24;4.97;;;1.33;;
9056;SDS011;4563;54.756;9.400;2022-08-25T14:41:50;3.83;;;0.80;;
9056;SDS011;4563;54.756;9.400;2022-08-25T14:44:18;4.53;;;0.90;;
9056;SDS011;4563;54.756;9.400;2022-08-25T14:46:47;4.65;;;0.80;;
9056;SDS011;4563;54.756;9.400;2022-08-25T14:49:18;5.75;;;0.85;;
9056;SDS011;4563;54.756;9.400;2022-08-25T14:51:46;3.92;;;1.10;;
9056;SDS011;4563;54.756;9.400;2022-08-25T14:54:14;2.58;;;0.90;;
9056;SDS011;4563;54.756;9.400;2022-08-25T14:56:43;5.90;;;0.73;;
9056;SDS011;4563;54.756;9.400;2022-08-25T14:59:11;1.88;;;0.85;;
9056;SDS011;4563;54.756;9.400;2022-08-25T15:01:38;5.57;;;0.93;;
9056;SDS011;4563;54.756;9.400;2022-08-25T15:04:08;3.25;;;1.00;;
9056;SDS011;4563;54.756;9.400;2022-08-25T15:06:37;4.60;;;0.85;;
9056;SDS011;4563;54.756;9.400;2022-08-25T15:09:07;2.20;;;1.02;;
9056;SDS011;4563;54.756;9.400;2022-08-25T15:11:39;3.67;;;0.90;;
9056;SDS011;4563;54.756;9.400;2022-08-25T15:14:07;3.95;;;0.98;;
9056;SDS011;4563;54.756;9.400;2022-08-25T15:16:35;5.80;;;0.80;;
9056;SDS011;4563;54.756;9.400;2022-08-25T15:19:05;5.88;;;0.90;;
9056;SDS011;4563;54.756;9.400;2022-08-25T15:21:35;2.30;;;0.70;;
9056;SDS011;4563;54.756;9.400;2022-08-25T15:24:03;2.42;;;0.90;;
9056;SDS011;4563;54.756;9.400;2022-08-25T15:26:31;1.90;;;0.82;;
9056;SDS011;4563;54.756;9.400;2022-08-25T15:29:03;4.13;;;1.23;;
9056;SDS011;4563;54.756;9.400;2022-08-25T15:31:30;2.30;;;0.90;;
9056;SDS011;4563;54.756;9.400;2022-08-25T15:33:57;2.20;;;0.80;;
9056;SDS011;4563;54.756;9.400;2022-08-25T15:36:26;3.22;;;1.05;;
9056;SDS011;4563;54.756;9.400;2022-08-25T15:38:53;2.55;;;0.73;;
9056;SDS011;4563;54.756;9.400;2022-08-25T15:41:19;2.25;;;1.10;;
9056;SDS011;4563;54.756;9.400;2022-08-25T15:43:46;6.72;;;1.13;;
9056;SDS011;4563;54.756;9.400;2022-08-25T15:46:15;3.45;;;0.77;;
9056;SDS011;4563;54.756;9.400;2022-08-25T15:48:45;3.65;;;1.15;;
9056;SDS011;4563;54.756;9.400;2022-08-25T15:51:12;4.68;;;1.02;;
9056;SDS011;4563;54.756;9.400;2022-08-25T15:53:43;3.08;;;1.02;;
9056;SDS011;4563;54.756;9.400;2022-08-25T15:56:10;3.63;;;0.88;;
9056;SDS011;4563;54.756;9.400;2022-08-25T15:58:41;1.80;;;0.95;;
9056;SDS011;4563;54.756;9.400;2022-08-25T16:01:10;3.58;;;0.98;;